sensor_id;sensor_type;location;lat;lon;timestamp;P1;durP1;ratioP1;P2;durP2;ratioP2
51244;SDS011;37840;47.562;18.738;2023-06-26T00:02:25;7.82;;;6.10;;
51244;SDS011;37840;47.562;18.738;2023-06-26T00:04:51;6.93;;;5.45;;
51244;SDS011;37840;47.562;18.738;2023-06-26T00:07:20;8.13;;;6.22;;
51244;SDS011;37840;47.562;18.738;2023-06-26T00:09:46;6.75;;;5.65;;
51244;SDS011;37840;47.562;18.738;2023-06-26T00:12:12;8.80;;;6.12;;
51244;SDS011;37840;47.562;18.738;2023-06-26T00:14:38;6.57;;;5.85;;
51244;SDS011;37840;47.562;18.738;2023-06-26T00:17:04;6.60;;;5.55;;
51244;SDS011;37840;47.562;18.738;2023-06-26T00:19:30;9.18;;;6.43;;
51244;SDS011;37840;47.562;18.738;2023-06-26T00:21:56;6.97;;;5.53;;
51244;SDS011;37840;47.562;18.738;2023-06-26T00:24:22;6.45;;;5.70;;
51244;SDS011;37840;47.562;18.738;2023-06-26T00:26:48;6.20;;;5.60;;
51244;SDS011;37840;47.562;18.738;2023-06-26T00:29:15;7.07;;;5.62;;
51244;SDS011;37840;47.562;18.738;2023-06-26T00:31:41;7.35;;;5.93;;
51244;SDS011;37840;47.562;18.738;2023-06-26T00:34:07;7.05;;;6.07;;
51244;SDS011;37840;47.562;18.738;2023-06-26T00:36:33;7.87;;;6.20;;
51244;SDS011;37840;47.562;18.738;2023-06-26T00:38:59;7.28;;;6.20;;
51244;SDS011;37840;47.562;18.738;2023-06-26T00:41:25;6.22;;;5.57;;
51244;SDS011;37840;47.562;18.738;2023-06-26T00:43:51;7.00;;;6.18;;
51244;SDS011;37840;47.562;18.738;2023-06-26T00:46:17;6.37;;;5.62;;
51244;SDS011;37840;47.562;18.738;2023-06-26T00:48:44;6.90;;;6.05;;
51244;SDS011;37840;47.562;18.738;2023-06-26T00:51:12;7.30;;;5.93;;
51244;SDS011;37840;47.562;18.738;2023-06-26T00:53:38;8.05;;;6.43;;
51244;SDS011;37840;47.562;18.738;2023-06-26T00:56:05;7.90;;;6.18;;
51244;SDS011;37840;47.562;18.738;2023-06-26T00:58:32;7.47;;;6.15;;
51244;SDS011;37840;47.562;18.738;2023-06-26T01:00:58;6.32;;;5.68;;
51244;SDS011;37840;47.562;18.738;2023-06-26T01:03:26;6.95;;;5.93;;
51244;SDS011;37840;47.562;18.738;2023-06-26T01:05:52;8.98;;;6.20;;
51244;SDS011;37840;47.562;18.738;2023-06-26T01:08:20;14.70;;;6.32;;
51244;SDS011;37840;47.562;18.738;2023-06-26T01:10:47;7.25;;;5.68;;
51244;SDS011;37840;47.562;18.738;2023-06-26T01:13:14;6.72;;;5.78;;
51244;SDS011;37840;47.562;18.738;2023-06-26T01:15:41;8.02;;;6.10;;
51244;SDS011;37840;47.562;18.738;2023-06-26T01:18:07;7.18;;;5.45;;
51244;SDS011;37840;47.562;18.738;2023-06-26T01:20:38;6.70;;;5.60;;
51244;SDS011;37840;47.562;18.738;2023-06-26T01:26:17;6.90;;;5.97;;
51244;SDS011;37840;47.562;18.738;2023-06-26T01:28:46;7.37;;;6.37;;
51244;SDS011;37840;47.562;18.738;2023-06-26T01:31:13;7.20;;;5.95;;
51244;SDS011;37840;47.562;18.738;2023-06-26T01:33:40;7.35;;;6.53;;
51244;SDS011;37840;47.562;18.738;2023-06-26T01:36:07;8.20;;;6.22;;
51244;SDS011;37840;47.562;18.738;2023-06-26T01:38:33;6.72;;;6.03;;
51244;SDS011;37840;47.562;18.738;2023-06-26T01:41:00;7.85;;;6.28;;
51244;SDS011;37840;47.562;18.738;2023-06-26T01:43:39;8.85;;;6.07;;
51244;SDS011;37840;47.562;18.738;2023-06-26T01:54:54;7.72;;;5.68;;
51244;SDS011;37840;47.562;18.738;2023-06-26T01:57:24;8.63;;;6.25;;
51244;SDS011;37840;47.562;18.738;2023-06-26T01:59:52;8.00;;;6.22;;
51244;SDS011;37840;47.562;18.738;2023-06-26T02:02:20;7.72;;;6.30;;
51244;SDS011;37840;47.562;18.738;2023-06-26T02:04:46;6.93;;;5.93;;
51244;SDS011;37840;47.562;18.738;2023-06-26T02:07:13;7.60;;;5.82;;
51244;SDS011;37840;47.562;18.738;2023-06-26T02:09:39;7.82;;;6.47;;
51244;SDS011;37840;47.562;18.738;2023-06-26T02:12:05;8.38;;;6.32;;
51244;SDS011;37840;47.562;18.738;2023-06-26T02:14:31;8.45;;;6.35;;
51244;SDS011;37840;47.562;18.738;2023-06-26T02:16:58;8.65;;;6.05;;
51244;SDS011;37840;47.562;18.738;2023-06-26T02:19:25;7.12;;;6.22;;
51244;SDS011;37840;47.562;18.738;2023-06-26T02:21:53;7.72;;;6.53;;
51244;SDS011;37840;47.562;18.738;2023-06-26T02:24:19;7.60;;;6.07;;
51244;SDS011;37840;47.562;18.738;2023-06-26T02:26:45;7.82;;;5.82;;
51244;SDS011;37840;47.562;18.738;2023-06-26T02:29:11;8.05;;;6.25;;
51244;SDS011;37840;47.562;18.738;2023-06-26T02:31:37;6.90;;;6.12;;
51244;SDS011;37840;47.562;18.738;2023-06-26T02:34:04;6.85;;;5.80;;
51244;SDS011;37840;47.562;18.738;2023-06-26T02:36:30;9.20;;;6.12;;
51244;SDS011;37840;47.562;18.738;2023-06-26T02:38:56;6.43;;;5.82;;
51244;SDS011;37840;47.562;18.738;2023-06-26T02:41:21;8.52;;;6.37;;
51244;SDS011;37840;47.562;18.738;2023-06-26T02:43:47;8.55;;;6.53;;
51244;SDS011;37840;47.562;18.738;2023-06-26T02:46:13;8.00;;;5.82;;
51244;SDS011;37840;47.562;18.738;2023-06-26T02:48:39;8.20;;;6.00;;
51244;SDS011;37840;47.562;18.738;2023-06-26T02:51:05;8.38;;;6.70;;
51244;SDS011;37840;47.562;18.738;2023-06-26T02:53:31;6.68;;;5.90;;
51244;SDS011;37840;47.562;18.738;2023-06-26T02:55:57;7.57;;;6.12;;
51244;SDS011;37840;47.562;18.738;2023-06-26T02:58:23;6.90;;;5.60;;
51244;SDS011;37840;47.562;18.738;2023-06-26T03:00:49;6.55;;;5.85;;
51244;SDS011;37840;47.562;18.738;2023-06-26T03:03:15;6.87;;;5.82;;
51244;SDS011;37840;47.562;18.738;2023-06-26T03:05:41;6.82;;;6.12;;
51244;SDS011;37840;47.562;18.738;2023-06-26T03:08:07;7.05;;;6.28;;
51244;SDS011;37840;47.562;18.738;2023-06-26T03:10:32;7.30;;;6.53;;
51244;SDS011;37840;47.562;18.738;2023-06-26T03:12:58;7.10;;;6.25;;
51244;SDS011;37840;47.562;18.738;2023-06-26T03:15:24;7.15;;;6.43;;
51244;SDS011;37840;47.562;18.738;2023-06-26T03:17:50;7.15;;;5.87;;
51244;SDS011;37840;47.562;18.738;2023-06-26T03:20:16;7.25;;;6.47;;
51244;SDS011;37840;47.562;18.738;2023-06-26T03:22:42;9.27;;;6.43;;
51244;SDS011;37840;47.562;18.738;2023-06-26T03:25:08;7.32;;;6.35;;
51244;SDS011;37840;47.562;18.738;2023-06-26T03:27:34;8.82;;;6.32;;
51244;SDS011;37840;47.562;18.738;2023-06-26T03:30:00;9.55;;;6.10;;
51244;SDS011;37840;47.562;18.738;2023-06-26T03:32:27;7.72;;;6.75;;
51244;SDS011;37840;47.562;18.738;2023-06-26T03:34:53;9.77;;;6.97;;
51244;SDS011;37840;47.562;18.738;2023-06-26T03:37:18;10.00;;;6.15;;
51244;SDS011;37840;47.562;18.738;2023-06-26T03:39:44;8.90;;;6.60;;
51244;SDS011;37840;47.562;18.738;2023-06-26T03:42:10;7.25;;;6.00;;
51244;SDS011;37840;47.562;18.738;2023-06-26T03:44:36;7.55;;;5.68;;
51244;SDS011;37840;47.562;18.738;2023-06-26T03:47:02;6.47;;;5.87;;
51244;SDS011;37840;47.562;18.738;2023-06-26T03:49:28;7.37;;;6.22;;
51244;SDS011;37840;47.562;18.738;2023-06-26T03:51:54;7.28;;;6.35;;
51244;SDS011;37840;47.562;18.738;2023-06-26T03:54:20;7.35;;;6.30;;
51244;SDS011;37840;47.562;18.738;2023-06-26T03:56:46;6.18;;;5.57;;
51244;SDS011;37840;47.562;18.738;2023-06-26T03:59:12;8.07;;;6.40;;
51244;SDS011;37840;47.562;18.738;2023-06-26T04:01:38;6.65;;;5.55;;
51244;SDS011;37840;47.562;18.738;2023-06-26T04:04:04;7.57;;;6.07;;
51244;SDS011;37840;47.562;18.738;2023-06-26T04:06:30;7.45;;;6.22;;
51244;SDS011;37840;47.562;18.738;2023-06-26T04:08:57;7.32;;;5.90;;
51244;SDS011;37840;47.562;18.738;2023-06-26T04:11:23;7.87;;;6.03;;
51244;SDS011;37840;47.562;18.738;2023-06-26T04:13:50;6.68;;;5.82;;
51244;SDS011;37840;47.562;18.738;2023-06-26T04:16:16;8.65;;;5.87;;
51244;SDS011;37840;47.562;18.738;2023-06-26T04:18:42;6.47;;;5.87;;
51244;SDS011;37840;47.562;18.738;2023-06-26T04:21:09;6.70;;;5.90;;
51244;SDS011;37840;47.562;18.738;2023-06-26T04:23:39;8.05;;;6.18;;
51244;SDS011;37840;47.562;18.738;2023-06-26T04:26:06;6.80;;;6.07;;
51244;SDS011;37840;47.562;18.738;2023-06-26T04:28:33;7.68;;;5.72;;
51244;SDS011;37840;47.562;18.738;2023-06-26T04:31:00;6.70;;;5.85;;
51244;SDS011;37840;47.562;18.738;2023-06-26T04:33:29;7.43;;;5.60;;
51244;SDS011;37840;47.562;18.738;2023-06-26T04:35:55;7.12;;;6.03;;
51244;SDS011;37840;47.562;18.738;2023-06-26T04:38:21;7.32;;;5.82;;
51244;SDS011;37840;47.562;18.738;2023-06-26T04:40:47;7.07;;;6.07;;
51244;SDS011;37840;47.562;18.738;2023-06-26T04:43:14;7.03;;;5.90;;
51244;SDS011;37840;47.562;18.738;2023-06-26T04:45:40;6.95;;;6.25;;
51244;SDS011;37840;47.562;18.738;2023-06-26T04:48:06;8.05;;;6.05;;
51244;SDS011;37840;47.562;18.738;2023-06-26T04:50:32;7.82;;;6.22;;
51244;SDS011;37840;47.562;18.738;2023-06-26T04:52:59;6.12;;;5.53;;
51244;SDS011;37840;47.562;18.738;2023-06-26T04:55:25;6.35;;;5.72;;
51244;SDS011;37840;47.562;18.738;2023-06-26T04:57:52;6.45;;;5.30;;
51244;SDS011;37840;47.562;18.738;2023-06-26T05:00:18;6.82;;;5.72;;
51244;SDS011;37840;47.562;18.738;2023-06-26T05:02:44;6.82;;;5.53;;
51244;SDS011;37840;47.562;18.738;2023-06-26T05:05:10;7.45;;;5.05;;
51244;SDS011;37840;47.562;18.738;2023-06-26T05:07:37;6.60;;;5.12;;
51244;SDS011;37840;47.562;18.738;2023-06-26T05:10:04;6.60;;;5.25;;
51244;SDS011;37840;47.562;18.738;2023-06-26T05:12:30;22.62;;;7.55;;
51244;SDS011;37840;47.562;18.738;2023-06-26T05:14:56;6.43;;;5.35;;
51244;SDS011;37840;47.562;18.738;2023-06-26T05:17:22;7.07;;;5.22;;
51244;SDS011;37840;47.562;18.738;2023-06-26T05:19:48;6.70;;;5.62;;
51244;SDS011;37840;47.562;18.738;2023-06-26T05:22:14;8.00;;;5.95;;
51244;SDS011;37840;47.562;18.738;2023-06-26T05:24:42;15.23;;;5.65;;
51244;SDS011;37840;47.562;18.738;2023-06-26T05:29:45;5.97;;;5.35;;
51244;SDS011;37840;47.562;18.738;2023-06-26T05:32:11;7.00;;;5.47;;
51244;SDS011;37840;47.562;18.738;2023-06-26T05:34:44;5.72;;;5.12;;
51244;SDS011;37840;47.562;18.738;2023-06-26T05:37:20;5.95;;;5.30;;
51244;SDS011;37840;47.562;18.738;2023-06-26T05:39:47;7.50;;;5.20;;
51244;SDS011;37840;47.562;18.738;2023-06-26T05:42:13;6.35;;;5.28;;
51244;SDS011;37840;47.562;18.738;2023-06-26T05:44:40;7.45;;;5.22;;
51244;SDS011;37840;47.562;18.738;2023-06-26T05:47:06;7.45;;;5.78;;
51244;SDS011;37840;47.562;18.738;2023-06-26T05:49:33;8.70;;;5.90;;
51244;SDS011;37840;47.562;18.738;2023-06-26T05:51:59;6.22;;;5.62;;
51244;SDS011;37840;47.562;18.738;2023-06-26T05:54:25;6.65;;;5.93;;
51244;SDS011;37840;47.562;18.738;2023-06-26T05:56:56;7.20;;;5.57;;
51244;SDS011;37840;47.562;18.738;2023-06-26T05:59:26;8.13;;;5.93;;
51244;SDS011;37840;47.562;18.738;2023-06-26T06:01:52;9.52;;;5.55;;
51244;SDS011;37840;47.562;18.738;2023-06-26T06:04:19;7.45;;;6.03;;
51244;SDS011;37840;47.562;18.738;2023-06-26T06:06:45;5.70;;;5.10;;
51244;SDS011;37840;47.562;18.738;2023-06-26T06:09:11;7.20;;;5.87;;
51244;SDS011;37840;47.562;18.738;2023-06-26T06:11:37;6.20;;;5.60;;
51244;SDS011;37840;47.562;18.738;2023-06-26T06:14:03;7.55;;;5.80;;
51244;SDS011;37840;47.562;18.738;2023-06-26T06:16:29;6.37;;;5.47;;
51244;SDS011;37840;47.562;18.738;2023-06-26T06:18:55;5.43;;;4.87;;
51244;SDS011;37840;47.562;18.738;2023-06-26T06:21:21;5.75;;;4.80;;
51244;SDS011;37840;47.562;18.738;2023-06-26T06:23:47;8.15;;;5.82;;
51244;SDS011;37840;47.562;18.738;2023-06-26T06:26:13;6.22;;;5.53;;
51244;SDS011;37840;47.562;18.738;2023-06-26T06:28:39;7.50;;;5.47;;
51244;SDS011;37840;47.562;18.738;2023-06-26T06:31:05;7.10;;;5.37;;
51244;SDS011;37840;47.562;18.738;2023-06-26T06:33:31;6.47;;;5.10;;
51244;SDS011;37840;47.562;18.738;2023-06-26T06:35:57;5.07;;;4.53;;
51244;SDS011;37840;47.562;18.738;2023-06-26T06:38:23;5.87;;;5.03;;
51244;SDS011;37840;47.562;18.738;2023-06-26T06:40:49;7.22;;;5.90;;
51244;SDS011;37840;47.562;18.738;2023-06-26T06:43:15;6.12;;;5.15;;
51244;SDS011;37840;47.562;18.738;2023-06-26T06:45:41;6.65;;;5.15;;
51244;SDS011;37840;47.562;18.738;2023-06-26T06:48:07;7.05;;;5.53;;
51244;SDS011;37840;47.562;18.738;2023-06-26T06:50:33;5.50;;;5.00;;
51244;SDS011;37840;47.562;18.738;2023-06-26T06:52:59;6.65;;;5.28;;
51244;SDS011;37840;47.562;18.738;2023-06-26T06:55:25;5.45;;;4.80;;
51244;SDS011;37840;47.562;18.738;2023-06-26T06:57:51;5.80;;;4.80;;
51244;SDS011;37840;47.562;18.738;2023-06-26T07:00:17;6.60;;;4.97;;
51244;SDS011;37840;47.562;18.738;2023-06-26T07:02:44;6.18;;;4.70;;
51244;SDS011;37840;47.562;18.738;2023-06-26T07:05:11;8.30;;;4.70;;
51244;SDS011;37840;47.562;18.738;2023-06-26T07:07:38;5.47;;;4.78;;
51244;SDS011;37840;47.562;18.738;2023-06-26T07:10:05;5.22;;;4.68;;
51244;SDS011;37840;47.562;18.738;2023-06-26T07:12:33;4.75;;;4.30;;
51244;SDS011;37840;47.562;18.738;2023-06-26T07:15:00;6.20;;;4.53;;
51244;SDS011;37840;47.562;18.738;2023-06-26T07:17:26;6.00;;;4.87;;
51244;SDS011;37840;47.562;18.738;2023-06-26T07:19:52;6.90;;;4.50;;
51244;SDS011;37840;47.562;18.738;2023-06-26T07:22:18;5.20;;;4.47;;
51244;SDS011;37840;47.562;18.738;2023-06-26T07:24:47;5.95;;;4.50;;
51244;SDS011;37840;47.562;18.738;2023-06-26T07:27:16;5.60;;;4.97;;
51244;SDS011;37840;47.562;18.738;2023-06-26T07:29:45;5.03;;;4.40;;
51244;SDS011;37840;47.562;18.738;2023-06-26T07:32:11;4.65;;;3.97;;
51244;SDS011;37840;47.562;18.738;2023-06-26T07:34:37;4.62;;;4.12;;
51244;SDS011;37840;47.562;18.738;2023-06-26T07:37:03;5.00;;;4.05;;
51244;SDS011;37840;47.562;18.738;2023-06-26T07:39:29;6.35;;;5.03;;
51244;SDS011;37840;47.562;18.738;2023-06-26T07:41:56;5.10;;;4.60;;
51244;SDS011;37840;47.562;18.738;2023-06-26T07:44:24;5.68;;;4.57;;
51244;SDS011;37840;47.562;18.738;2023-06-26T07:46:51;5.65;;;4.45;;
51244;SDS011;37840;47.562;18.738;2023-06-26T07:49:17;6.12;;;4.53;;
51244;SDS011;37840;47.562;18.738;2023-06-26T07:51:43;5.55;;;4.40;;
51244;SDS011;37840;47.562;18.738;2023-06-26T07:54:09;5.10;;;4.30;;
51244;SDS011;37840;47.562;18.738;2023-06-26T07:56:35;5.75;;;5.15;;
51244;SDS011;37840;47.562;18.738;2023-06-26T07:59:27;6.62;;;4.57;;
51244;SDS011;37840;47.562;18.738;2023-06-26T08:01:55;7.30;;;4.75;;
51244;SDS011;37840;47.562;18.738;2023-06-26T08:04:23;5.93;;;5.22;;
51244;SDS011;37840;47.562;18.738;2023-06-26T08:06:56;4.93;;;4.43;;
51244;SDS011;37840;47.562;18.738;2023-06-26T08:09:24;4.90;;;3.83;;
51244;SDS011;37840;47.562;18.738;2023-06-26T08:11:54;7.72;;;4.90;;
51244;SDS011;37840;47.562;18.738;2023-06-26T08:14:21;5.22;;;4.28;;
51244;SDS011;37840;47.562;18.738;2023-06-26T08:16:47;5.55;;;4.05;;
51244;SDS011;37840;47.562;18.738;2023-06-26T08:19:13;4.97;;;4.47;;
51244;SDS011;37840;47.562;18.738;2023-06-26T08:21:40;7.18;;;3.90;;
51244;SDS011;37840;47.562;18.738;2023-06-26T08:24:07;8.57;;;4.57;;
51244;SDS011;37840;47.562;18.738;2023-06-26T08:26:34;8.13;;;4.15;;
51244;SDS011;37840;47.562;18.738;2023-06-26T08:29:00;4.75;;;3.97;;
51244;SDS011;37840;47.562;18.738;2023-06-26T08:31:36;4.55;;;4.05;;
51244;SDS011;37840;47.562;18.738;2023-06-26T08:34:05;5.78;;;3.60;;
51244;SDS011;37840;47.562;18.738;2023-06-26T08:36:32;4.40;;;3.62;;
51244;SDS011;37840;47.562;18.738;2023-06-26T08:38:58;4.12;;;3.50;;
51244;SDS011;37840;47.562;18.738;2023-06-26T08:41:24;4.30;;;3.90;;
51244;SDS011;37840;47.562;18.738;2023-06-26T08:43:50;4.97;;;3.50;;
51244;SDS011;37840;47.562;18.738;2023-06-26T08:46:18;4.25;;;3.20;;
51244;SDS011;37840;47.562;18.738;2023-06-26T08:48:48;4.32;;;3.40;;
51244;SDS011;37840;47.562;18.738;2023-06-26T08:51:17;5.00;;;3.50;;
51244;SDS011;37840;47.562;18.738;2023-06-26T08:53:50;4.40;;;3.42;;
51244;SDS011;37840;47.562;18.738;2023-06-26T08:56:21;5.87;;;3.50;;
51244;SDS011;37840;47.562;18.738;2023-06-26T08:58:49;3.55;;;3.25;;
51244;SDS011;37840;47.562;18.738;2023-06-26T09:01:15;5.72;;;3.40;;
51244;SDS011;37840;47.562;18.738;2023-06-26T09:03:42;4.55;;;3.42;;
51244;SDS011;37840;47.562;18.738;2023-06-26T09:06:08;3.80;;;3.30;;
51244;SDS011;37840;47.562;18.738;2023-06-26T09:08:34;4.78;;;3.40;;
51244;SDS011;37840;47.562;18.738;2023-06-26T09:11:00;4.00;;;3.17;;
51244;SDS011;37840;47.562;18.738;2023-06-26T09:13:28;4.28;;;3.15;;
51244;SDS011;37840;47.562;18.738;2023-06-26T09:15:55;4.47;;;3.80;;
51244;SDS011;37840;47.562;18.738;2023-06-26T09:18:21;3.37;;;2.90;;
51244;SDS011;37840;47.562;18.738;2023-06-26T09:20:48;3.87;;;3.10;;
51244;SDS011;37840;47.562;18.738;2023-06-26T09:23:15;5.07;;;3.62;;
51244;SDS011;37840;47.562;18.738;2023-06-26T09:25:41;11.43;;;4.40;;
51244;SDS011;37840;47.562;18.738;2023-06-26T09:28:10;4.18;;;3.15;;
51244;SDS011;37840;47.562;18.738;2023-06-26T09:30:36;5.68;;;3.50;;
51244;SDS011;37840;47.562;18.738;2023-06-26T09:33:12;9.57;;;5.07;;
51244;SDS011;37840;47.562;18.738;2023-06-26T09:35:40;5.55;;;3.75;;
51244;SDS011;37840;47.562;18.738;2023-06-26T09:38:06;5.20;;;3.28;;
51244;SDS011;37840;47.562;18.738;2023-06-26T09:40:33;8.55;;;4.80;;
51244;SDS011;37840;47.562;18.738;2023-06-26T09:43:04;8.02;;;4.30;;
51244;SDS011;37840;47.562;18.738;2023-06-26T09:45:39;4.57;;;3.50;;
51244;SDS011;37840;47.562;18.738;2023-06-26T09:48:06;7.37;;;3.50;;
51244;SDS011;37840;47.562;18.738;2023-06-26T09:50:37;4.72;;;3.53;;
51244;SDS011;37840;47.562;18.738;2023-06-26T09:53:08;4.68;;;3.53;;
51244;SDS011;37840;47.562;18.738;2023-06-26T09:55:39;3.97;;;3.10;;
51244;SDS011;37840;47.562;18.738;2023-06-26T09:58:12;4.05;;;3.47;;
51244;SDS011;37840;47.562;18.738;2023-06-26T10:00:40;4.40;;;4.00;;
51244;SDS011;37840;47.562;18.738;2023-06-26T10:03:08;4.53;;;3.33;;
51244;SDS011;37840;47.562;18.738;2023-06-26T10:05:35;4.32;;;3.55;;
51244;SDS011;37840;47.562;18.738;2023-06-26T10:08:01;4.03;;;3.30;;
51244;SDS011;37840;47.562;18.738;2023-06-26T10:10:30;3.80;;;3.25;;
51244;SDS011;37840;47.562;18.738;2023-06-26T10:13:04;4.70;;;3.10;;
51244;SDS011;37840;47.562;18.738;2023-06-26T10:15:36;5.30;;;3.37;;
51244;SDS011;37840;47.562;18.738;2023-06-26T10:18:04;3.92;;;3.03;;
51244;SDS011;37840;47.562;18.738;2023-06-26T10:20:31;4.12;;;3.67;;
51244;SDS011;37840;47.562;18.738;2023-06-26T10:22:58;4.00;;;3.37;;
51244;SDS011;37840;47.562;18.738;2023-06-26T10:25:28;10.88;;;3.83;;
51244;SDS011;37840;47.562;18.738;2023-06-26T10:27:57;4.22;;;2.97;;
51244;SDS011;37840;47.562;18.738;2023-06-26T10:30:26;4.43;;;3.33;;
51244;SDS011;37840;47.562;18.738;2023-06-26T10:32:56;4.85;;;3.53;;
51244;SDS011;37840;47.562;18.738;2023-06-26T10:35:23;5.15;;;3.70;;
51244;SDS011;37840;47.562;18.738;2023-06-26T10:37:50;3.70;;;3.15;;
51244;SDS011;37840;47.562;18.738;2023-06-26T10:40:26;4.22;;;3.20;;
51244;SDS011;37840;47.562;18.738;2023-06-26T10:43:06;5.57;;;3.58;;
51244;SDS011;37840;47.562;18.738;2023-06-26T10:45:34;3.47;;;3.17;;
51244;SDS011;37840;47.562;18.738;2023-06-26T10:48:01;3.53;;;3.20;;
51244;SDS011;37840;47.562;18.738;2023-06-26T10:50:28;7.57;;;3.33;;
51244;SDS011;37840;47.562;18.738;2023-06-26T10:53:07;5.43;;;3.25;;
51244;SDS011;37840;47.562;18.738;2023-06-26T10:56:18;4.45;;;3.17;;
51244;SDS011;37840;47.562;18.738;2023-06-26T11:03:40;3.00;;;2.55;;
51244;SDS011;37840;47.562;18.738;2023-06-26T11:06:10;3.47;;;2.75;;
51244;SDS011;37840;47.562;18.738;2023-06-26T11:11:14;4.40;;;3.03;;
51244;SDS011;37840;47.562;18.738;2023-06-26T11:13:41;7.10;;;3.10;;
51244;SDS011;37840;47.562;18.738;2023-06-26T11:16:07;3.40;;;2.95;;
51244;SDS011;37840;47.562;18.738;2023-06-26T11:18:34;3.00;;;2.70;;
51244;SDS011;37840;47.562;18.738;2023-06-26T11:21:09;4.62;;;3.00;;
51244;SDS011;37840;47.562;18.738;2023-06-26T11:23:41;3.08;;;2.78;;
51244;SDS011;37840;47.562;18.738;2023-06-26T11:26:15;3.37;;;2.85;;
51244;SDS011;37840;47.562;18.738;2023-06-26T11:28:56;3.25;;;2.70;;
51244;SDS011;37840;47.562;18.738;2023-06-26T11:36:18;3.10;;;2.62;;
51244;SDS011;37840;47.562;18.738;2023-06-26T11:38:44;4.68;;;3.00;;
51244;SDS011;37840;47.562;18.738;2023-06-26T11:41:16;4.93;;;2.58;;
51244;SDS011;37840;47.562;18.738;2023-06-26T11:43:43;2.70;;;2.50;;
51244;SDS011;37840;47.562;18.738;2023-06-26T11:46:09;15.48;;;3.22;;
51244;SDS011;37840;47.562;18.738;2023-06-26T11:48:35;3.83;;;2.53;;
51244;SDS011;37840;47.562;18.738;2023-06-26T11:51:03;2.87;;;2.40;;
51244;SDS011;37840;47.562;18.738;2023-06-26T11:53:30;2.80;;;2.55;;
51244;SDS011;37840;47.562;18.738;2023-06-26T11:55:56;2.80;;;2.50;;
51244;SDS011;37840;47.562;18.738;2023-06-26T11:58:22;2.85;;;2.50;;
51244;SDS011;37840;47.562;18.738;2023-06-26T12:00:48;3.22;;;2.60;;
51244;SDS011;37840;47.562;18.738;2023-06-26T12:03:14;16.17;;;3.53;;
51244;SDS011;37840;47.562;18.738;2023-06-26T12:05:41;6.03;;;2.87;;
51244;SDS011;37840;47.562;18.738;2023-06-26T12:08:10;2.85;;;2.40;;
51244;SDS011;37840;47.562;18.738;2023-06-26T12:10:36;2.97;;;2.67;;
51244;SDS011;37840;47.562;18.738;2023-06-26T12:13:02;3.25;;;2.70;;
51244;SDS011;37840;47.562;18.738;2023-06-26T12:15:29;48.55;;;5.10;;
51244;SDS011;37840;47.562;18.738;2023-06-26T12:17:55;4.03;;;2.62;;
51244;SDS011;37840;47.562;18.738;2023-06-26T12:20:22;3.17;;;2.17;;
51244;SDS011;37840;47.562;18.738;2023-06-26T12:22:49;3.47;;;2.30;;
51244;SDS011;37840;47.562;18.738;2023-06-26T12:25:15;4.07;;;2.35;;
51244;SDS011;37840;47.562;18.738;2023-06-26T12:27:46;4.68;;;2.60;;
51244;SDS011;37840;47.562;18.738;2023-06-26T12:30:12;3.40;;;2.37;;
51244;SDS011;37840;47.562;18.738;2023-06-26T12:32:38;3.33;;;2.70;;
51244;SDS011;37840;47.562;18.738;2023-06-26T12:35:04;3.42;;;2.70;;
51244;SDS011;37840;47.562;18.738;2023-06-26T12:37:35;4.78;;;2.40;;
51244;SDS011;37840;47.562;18.738;2023-06-26T12:40:02;4.43;;;2.62;;
51244;SDS011;37840;47.562;18.738;2023-06-26T12:42:33;3.42;;;2.58;;
51244;SDS011;37840;47.562;18.738;2023-06-26T12:44:59;3.42;;;2.42;;
51244;SDS011;37840;47.562;18.738;2023-06-26T12:47:26;3.67;;;2.58;;
51244;SDS011;37840;47.562;18.738;2023-06-26T12:49:53;3.15;;;2.53;;
51244;SDS011;37840;47.562;18.738;2023-06-26T12:52:20;3.53;;;2.65;;
51244;SDS011;37840;47.562;18.738;2023-06-26T12:54:46;3.22;;;2.72;;
51244;SDS011;37840;47.562;18.738;2023-06-26T12:57:17;3.00;;;2.70;;
51244;SDS011;37840;47.562;18.738;2023-06-26T12:59:43;4.55;;;2.83;;
51244;SDS011;37840;47.562;18.738;2023-06-26T13:02:09;2.90;;;2.35;;
51244;SDS011;37840;47.562;18.738;2023-06-26T13:04:38;3.50;;;2.70;;
51244;SDS011;37840;47.562;18.738;2023-06-26T13:07:10;5.03;;;3.10;;
51244;SDS011;37840;47.562;18.738;2023-06-26T13:09:36;3.45;;;2.62;;
51244;SDS011;37840;47.562;18.738;2023-06-26T13:12:04;2.67;;;2.47;;
51244;SDS011;37840;47.562;18.738;2023-06-26T13:14:31;3.00;;;2.53;;
51244;SDS011;37840;47.562;18.738;2023-06-26T13:16:58;3.15;;;2.83;;
51244;SDS011;37840;47.562;18.738;2023-06-26T13:19:26;3.97;;;2.53;;
51244;SDS011;37840;47.562;18.738;2023-06-26T13:21:52;3.35;;;2.53;;
51244;SDS011;37840;47.562;18.738;2023-06-26T13:24:18;4.93;;;2.85;;
51244;SDS011;37840;47.562;18.738;2023-06-26T13:26:44;2.83;;;2.47;;
51244;SDS011;37840;47.562;18.738;2023-06-26T13:29:10;3.30;;;2.40;;
51244;SDS011;37840;47.562;18.738;2023-06-26T13:31:36;4.75;;;2.80;;
51244;SDS011;37840;47.562;18.738;2023-06-26T13:34:04;3.33;;;2.72;;
51244;SDS011;37840;47.562;18.738;2023-06-26T13:36:30;3.00;;;2.70;;
51244;SDS011;37840;47.562;18.738;2023-06-26T13:39:00;3.12;;;2.40;;
51244;SDS011;37840;47.562;18.738;2023-06-26T13:41:26;2.90;;;2.30;;
51244;SDS011;37840;47.562;18.738;2023-06-26T13:43:53;3.65;;;2.40;;
51244;SDS011;37840;47.562;18.738;2023-06-26T13:46:19;3.05;;;2.70;;
51244;SDS011;37840;47.562;18.738;2023-06-26T13:48:45;3.42;;;2.22;;
51244;SDS011;37840;47.562;18.738;2023-06-26T13:51:11;8.38;;;2.83;;
51244;SDS011;37840;47.562;18.738;2023-06-26T13:53:37;7.00;;;2.45;;
51244;SDS011;37840;47.562;18.738;2023-06-26T13:56:04;3.12;;;2.50;;
51244;SDS011;37840;47.562;18.738;2023-06-26T13:58:30;3.72;;;2.50;;
51244;SDS011;37840;47.562;18.738;2023-06-26T14:00:58;4.40;;;2.53;;
51244;SDS011;37840;47.562;18.738;2023-06-26T14:03:26;3.92;;;2.28;;
51244;SDS011;37840;47.562;18.738;2023-06-26T14:05:53;5.00;;;2.60;;
51244;SDS011;37840;47.562;18.738;2023-06-26T14:08:18;4.00;;;2.83;;
51244;SDS011;37840;47.562;18.738;2023-06-26T14:10:44;2.80;;;2.45;;
51244;SDS011;37840;47.562;18.738;2023-06-26T14:13:10;3.53;;;2.70;;
51244;SDS011;37840;47.562;18.738;2023-06-26T14:15:40;3.20;;;2.42;;
51244;SDS011;37840;47.562;18.738;2023-06-26T14:18:07;4.47;;;2.55;;
51244;SDS011;37840;47.562;18.738;2023-06-26T14:20:33;8.85;;;2.58;;
51244;SDS011;37840;47.562;18.738;2023-06-26T14:23:01;5.75;;;2.80;;
51244;SDS011;37840;47.562;18.738;2023-06-26T14:25:27;5.28;;;2.70;;
51244;SDS011;37840;47.562;18.738;2023-06-26T14:27:54;3.20;;;2.60;;
51244;SDS011;37840;47.562;18.738;2023-06-26T14:30:21;2.70;;;2.30;;
51244;SDS011;37840;47.562;18.738;2023-06-26T14:32:47;3.45;;;2.37;;
51244;SDS011;37840;47.562;18.738;2023-06-26T14:35:13;2.72;;;2.50;;
51244;SDS011;37840;47.562;18.738;2023-06-26T14:37:39;3.03;;;2.55;;
51244;SDS011;37840;47.562;18.738;2023-06-26T14:40:08;2.92;;;2.50;;
51244;SDS011;37840;47.562;18.738;2023-06-26T14:42:34;2.65;;;2.42;;
51244;SDS011;37840;47.562;18.738;2023-06-26T14:45:00;4.25;;;2.83;;
51244;SDS011;37840;47.562;18.738;2023-06-26T14:47:26;3.22;;;2.25;;
51244;SDS011;37840;47.562;18.738;2023-06-26T14:49:52;2.83;;;2.25;;
51244;SDS011;37840;47.562;18.738;2023-06-26T14:52:18;3.45;;;2.50;;
51244;SDS011;37840;47.562;18.738;2023-06-26T14:54:44;2.28;;;2.08;;
51244;SDS011;37840;47.562;18.738;2023-06-26T14:57:10;3.72;;;3.00;;
51244;SDS011;37840;47.562;18.738;2023-06-26T14:59:36;4.12;;;2.45;;
51244;SDS011;37840;47.562;18.738;2023-06-26T15:02:02;3.15;;;2.65;;